Alvordton, Ohio
Current Conditions -  °F | °C
As of 1:35 PM on Wednesday 26 Nov 2014 (Local Time) from KUSE Reporting Station
Overcast Overcast  
Wind Chill: 26°   Ceiling: 3300
Heat Index: 32°   Visibility: 10mi
Dew Point: 23°   Wind: 6mph
Humidity: 69%   Direction: 50°NE
Pressure: 30.09"   Gusts: NA
Location:  41.67°N, 84.44°W
Report Text: KUSE 261835Z AUTO 05005KT 10SM OVC033 M00/M05 A3009 RMK AO2
Loading
Personal Weather Stations






























Interactive Weather Map New forecast layout! Learn more

10-Day Weather Forecast

Advertisements
Track Severe Weather on mobile